Time;durP1;ratioP1;P1;durP2;ratioP2;P2;SDS_P1;SDS_P2;PMS_P1;PMS_P2;Temp;Humidity;BMP_temperature;BMP_pressure;BME280_temperature;BME280_humidity;BME280_pressure;Samples;Min_cycle;Max_cycle;Signal;HPM_P1;HPM_P2
2021/11/28 00:00:45;;;;;;;20.83;12.23;;;2.80;99.90;;;;;;5012286;28;20026;-70
2021/11/28 00:03:14;;;;;;;19.25;11.05;;;2.80;99.90;;;;;;5017899;28;20049;-70
2021/11/28 00:05:41;;;;;;;18.88;11.57;;;2.80;99.90;;;;;;5012322;28;20133;-70
2021/11/28 00:16:09;;;;;;;18.55;11.20;;;2.50;99.90;;;;;;5015863;28;20436;-70
2021/11/28 00:18:35;;;;;;;21.40;12.48;;;2.50;99.90;;;;;;5012019;28;20105;-70
2021/11/28 00:21:02;;;;;;;21.58;11.55;;;2.40;99.90;;;;;;5010995;28;20499;-70
2021/11/28 00:23:28;;;;;;;19.42;11.38;;;2.40;99.90;;;;;;5018764;28;20501;-70
2021/11/28 00:25:54;;;;;;;19.17;11.43;;;2.50;99.90;;;;;;5011080;28;20030;-70
2021/11/28 00:28:20;;;;;;;21.23;11.27;;;2.50;99.90;;;;;;5014785;28;20022;-70
2021/11/28 00:30:46;;;;;;;18.48;10.52;;;2.50;99.90;;;;;;5018670;28;20083;-70
2021/11/28 00:33:12;;;;;;;18.77;10.95;;;2.60;99.90;;;;;;5020187;28;20025;-70
2021/11/28 00:35:37;;;;;;;18.77;11.23;;;2.50;99.90;;;;;;5019878;28;20577;-70
2021/11/28 00:38:03;;;;;;;18.90;10.63;;;2.50;99.90;;;;;;5017917;28;20495;-70
2021/11/28 00:40:29;;;;;;;19.83;10.95;;;2.50;99.90;;;;;;5018172;28;20033;-70
2021/11/28 00:42:56;;;;;;;21.77;12.23;;;2.50;99.90;;;;;;5018379;28;20037;-70
2021/11/28 00:45:22;;;;;;;19.15;10.48;;;2.50;99.90;;;;;;5019522;28;20026;-70
2021/11/28 00:47:48;;;;;;;17.08;9.75;;;2.50;99.90;;;;;;5018121;28;20048;-70
2021/11/28 00:52:40;;;;;;;19.45;11.70;;;2.50;99.90;;;;;;5017947;28;20038;-70
2021/11/28 00:55:09;;;;;;;20.92;11.82;;;2.60;99.90;;;;;;5015516;28;20048;-70
2021/11/28 00:57:35;;;;;;;23.83;13.38;;;2.60;99.90;;;;;;5020263;28;20029;-70
2021/11/28 01:00:05;;;;;;;21.45;11.75;;;2.60;99.90;;;;;;5019469;28;20395;-70
2021/11/28 01:02:31;;;;;;;19.38;11.82;;;2.60;99.90;;;;;;5019870;28;20388;-71
2021/11/28 01:04:58;;;;;;;23.38;12.63;;;2.60;99.90;;;;;;5000646;28;20048;-71
2021/11/28 01:07:26;;;;;;;20.92;12.98;;;2.60;99.90;;;;;;5018549;28;20022;-70
2021/11/28 01:09:53;;;;;;;24.75;14.07;;;2.50;99.90;;;;;;5017953;28;20041;-70
2021/11/28 01:12:20;;;;;;;23.15;13.07;;;2.50;99.90;;;;;;5016255;28;20030;-70
2021/11/28 01:14:46;;;;;;;21.42;12.65;;;2.60;99.90;;;;;;5019421;28;20032;-70
2021/11/28 01:17:11;;;;;;;20.50;12.15;;;2.60;99.90;;;;;;5017129;28;20025;-71
2021/11/28 01:19:37;;;;;;;18.17;11.40;;;2.60;99.90;;;;;;5016735;28;20399;-70
2021/11/28 01:22:07;;;;;;;17.80;11.52;;;2.60;99.90;;;;;;5019195;28;20033;-70
2021/11/28 01:24:33;;;;;;;21.48;12.45;;;2.60;99.90;;;;;;5022410;28;20064;-71
2021/11/28 01:26:59;;;;;;;21.10;12.18;;;2.60;99.90;;;;;;5017107;28;20022;-71
2021/11/28 01:29:25;;;;;;;17.67;11.38;;;2.60;99.90;;;;;;5016216;28;20034;-71
2021/11/28 01:31:51;;;;;;;21.40;12.43;;;2.60;99.90;;;;;;5017283;28;20537;-70
2021/11/28 01:34:17;;;;;;;20.85;11.90;;;2.60;99.90;;;;;;5017942;28;20032;-70
2021/11/28 01:36:43;;;;;;;22.30;12.50;;;2.60;99.90;;;;;;5017527;28;20034;-70
2021/11/28 01:39:10;;;;;;;19.73;11.95;;;2.70;99.90;;;;;;5005175;28;20041;-70
2021/11/28 01:41:37;;;;;;;19.85;11.68;;;2.70;99.90;;;;;;5015248;28;20034;-70
2021/11/28 01:44:05;;;;;;;17.45;11.73;;;2.70;99.90;;;;;;5017210;28;20025;-70
2021/11/28 01:46:31;;;;;;;20.98;12.95;;;2.60;99.90;;;;;;5017160;28;20028;-70
2021/11/28 01:48:57;;;;;;;21.95;12.40;;;2.60;99.90;;;;;;5021038;28;20025;-70
2021/11/28 01:51:23;;;;;;;21.70;12.93;;;2.60;99.90;;;;;;5016431;28;20056;-70
2021/11/28 01:53:52;;;;;;;21.58;12.55;;;2.50;99.90;;;;;;5001026;28;20054;-70
2021/11/28 01:56:18;;;;;;;21.67;12.73;;;2.60;99.90;;;;;;5016568;28;20053;-70
2021/11/28 01:58:44;;;;;;;20.70;12.10;;;2.60;99.90;;;;;;5017682;28;20491;-70
2021/11/28 02:01:13;;;;;;;22.63;12.65;;;2.50;99.90;;;;;;5015859;28;20083;-70
2021/11/28 02:03:41;;;;;;;21.20;12.65;;;2.50;99.90;;;;;;5017737;28;20025;-70
2021/11/28 02:06:09;;;;;;;21.67;12.00;;;2.50;99.90;;;;;;5016951;28;20373;-70
2021/11/28 02:08:37;;;;;;;20.85;11.77;;;2.50;99.90;;;;;;5020753;28;20053;-70
2021/11/28 02:11:03;;;;;;;21.52;13.07;;;2.60;99.90;;;;;;5003504;28;20026;-70
2021/11/28 02:13:30;;;;;;;21.05;12.23;;;2.60;99.90;;;;;;5018440;28;20120;-70
2021/11/28 02:15:56;;;;;;;20.48;11.70;;;2.50;99.90;;;;;;5020183;28;20041;-70
2021/11/28 02:18:24;;;;;;;21.13;11.93;;;2.60;99.90;;;;;;5018134;28;20033;-70
2021/11/28 02:20:55;;;;;;;21.42;12.77;;;2.60;99.90;;;;;;5016427;28;20095;-70
2021/11/28 02:23:22;;;;;;;19.65;10.95;;;2.60;99.90;;;;;;5016822;28;20411;-70
2021/11/28 02:25:50;;;;;;;21.13;11.52;;;2.50;99.90;;;;;;5018336;28;20241;-70
2021/11/28 02:28:16;;;;;;;20.15;11.23;;;2.50;99.90;;;;;;5018687;28;20029;-70
2021/11/28 02:30:42;;;;;;;20.30;11.60;;;2.50;99.90;;;;;;5017357;28;20383;-70
2021/11/28 02:33:08;;;;;;;20.25;11.48;;;2.50;99.90;;;;;;5017067;28;20048;-70
2021/11/28 02:35:34;;;;;;;20.27;11.90;;;2.50;99.90;;;;;;5016098;28;20101;-70
2021/11/28 02:38:05;;;;;;;22.70;11.75;;;2.50;99.90;;;;;;5017296;28;20035;-70
2021/11/28 02:40:32;;;;;;;25.73;13.02;;;2.50;99.90;;;;;;5000646;28;20065;-70
2021/11/28 02:42:57;;;;;;;19.70;10.77;;;2.50;99.90;;;;;;5001267;28;20113;-70
2021/11/28 02:45:27;;;;;;;21.45;11.93;;;2.50;99.90;;;;;;5017421;28;20056;-71
2021/11/28 02:47:56;;;;;;;20.80;11.80;;;2.60;99.90;;;;;;5016024;28;20018;-70
2021/11/28 02:50:22;;;;;;;21.73;12.10;;;2.60;99.90;;;;;;5003824;28;20034;-70
2021/11/28 02:52:54;;;;;;;25.05;12.85;;;2.60;99.90;;;;;;5018419;28;20034;-70
2021/11/28 02:55:26;;;;;;;25.48;12.50;;;2.60;99.90;;;;;;5016016;28;20026;-70
2021/11/28 02:57:53;;;;;;;26.73;12.77;;;2.60;99.90;;;;;;5000069;28;20065;-70
2021/11/28 03:00:20;;;;;;;25.67;13.27;;;2.60;99.90;;;;;;5015356;28;20029;-70
2021/11/28 03:02:46;;;;;;;26.98;13.25;;;2.50;99.90;;;;;;5019491;28;20029;-70
2021/11/28 03:05:12;;;;;;;29.35;14.02;;;2.50;99.90;;;;;;5015524;28;20037;-71
2021/11/28 03:07:40;;;;;;;29.83;14.60;;;2.40;99.90;;;;;;4999408;28;20087;-70
2021/11/28 03:10:27;;;;;;;29.65;14.43;;;2.40;99.90;;;;;;5019686;28;20425;-70
2021/11/28 03:12:53;;;;;;;26.65;13.65;;;2.40;99.90;;;;;;5021761;28;20034;-71
2021/11/28 03:15:19;;;;;;;30.88;14.25;;;2.50;99.90;;;;;;5022035;28;20032;-70
2021/11/28 03:17:44;;;;;;;27.30;14.20;;;2.40;99.90;;;;;;4987249;28;20113;-70
2021/11/28 03:20:10;;;;;;;26.98;12.93;;;2.50;99.90;;;;;;5019200;28;20391;-71
2021/11/28 03:22:36;;;;;;;25.42;13.30;;;2.50;99.90;;;;;;5018496;28;20382;-70
2021/11/28 03:25:09;;;;;;;25.70;14.10;;;2.50;99.90;;;;;;5019567;28;20026;-70
2021/11/28 03:27:35;;;;;;;25.35;13.18;;;2.50;99.90;;;;;;5023984;28;20025;-70
2021/11/28 03:30:01;;;;;;;24.83;12.48;;;2.50;99.90;;;;;;5021172;28;20033;-70
2021/11/28 03:32:27;;;;;;;24.13;12.93;;;2.50;99.90;;;;;;5023421;28;20025;-70
2021/11/28 03:34:52;;;;;;;25.73;13.65;;;2.50;99.90;;;;;;5023845;28;20433;-70
2021/11/28 03:37:18;;;;;;;23.25;12.23;;;2.50;99.90;;;;;;5023454;28;20112;-70
2021/11/28 03:39:44;;;;;;;24.90;13.02;;;2.50;99.90;;;;;;5024052;28;20037;-70
2021/11/28 03:42:10;;;;;;;26.88;12.40;;;2.50;99.90;;;;;;5023462;28;20057;-70
2021/11/28 03:44:36;;;;;;;26.38;14.02;;;2.50;99.90;;;;;;5021994;28;20022;-70
2021/11/28 03:47:02;;;;;;;24.42;13.25;;;2.50;99.90;;;;;;5023958;28;20496;-70
2021/11/28 03:49:29;;;;;;;25.40;13.10;;;2.50;99.90;;;;;;5022942;28;20025;-70
2021/11/28 03:51:56;;;;;;;25.50;13.00;;;2.50;99.90;;;;;;5020088;28;20173;-70
2021/11/28 03:54:22;;;;;;;26.40;13.77;;;2.50;99.90;;;;;;5020533;28;20049;-71
2021/11/28 03:56:48;;;;;;;27.33;13.18;;;2.60;99.90;;;;;;5019047;28;20026;-70
2021/11/28 03:59:15;;;;;;;25.98;13.38;;;2.50;99.90;;;;;;5019363;28;20132;-70
2021/11/28 04:01:41;;;;;;;26.90;13.23;;;2.60;99.90;;;;;;5000250;28;20036;-70
2021/11/28 04:04:07;;;;;;;28.98;14.52;;;2.50;99.90;;;;;;5022965;28;20022;-70
2021/11/28 04:06:34;;;;;;;25.23;13.70;;;2.60;99.90;;;;;;5021577;28;20033;-70
2021/11/28 04:09:00;;;;;;;23.02;12.60;;;2.50;99.90;;;;;;5020985;28;20400;-71
2021/11/28 04:11:25;;;;;;;24.80;13.35;;;2.60;99.90;;;;;;5021817;28;20026;-71
2021/11/28 04:13:51;;;;;;;26.85;13.93;;;2.60;99.90;;;;;;5022332;28;20033;-70
2021/11/28 04:16:17;;;;;;;27.20;13.02;;;2.50;99.90;;;;;;5023236;28;20017;-70
2021/11/28 04:18:43;;;;;;;25.70;13.38;;;2.50;99.90;;;;;;5022180;28;20392;-70
2021/11/28 04:21:09;;;;;;;26.33;12.82;;;2.60;99.90;;;;;;5020236;28;20026;-70
2021/11/28 04:23:35;;;;;;;24.50;13.60;;;2.50;99.90;;;;;;5020364;28;20037;-71
2021/11/28 04:26:00;;;;;;;23.45;12.40;;;2.60;99.90;;;;;;5022706;28;20029;-70
2021/11/28 04:28:26;;;;;;;24.00;12.55;;;2.50;99.90;;;;;;5018659;28;20025;-71
2021/11/28 04:30:52;;;;;;;25.23;13.30;;;2.50;99.90;;;;;;5003008;28;20105;-70
2021/11/28 04:33:18;;;;;;;25.80;13.75;;;2.60;99.90;;;;;;5017549;28;20041;-70
2021/11/28 04:35:44;;;;;;;24.55;13.07;;;2.50;99.90;;;;;;5013306;28;20030;-71
2021/11/28 04:38:10;;;;;;;28.95;15.20;;;2.50;99.90;;;;;;5018783;28;20032;-71
2021/11/28 04:40:36;;;;;;;24.88;13.23;;;2.40;99.90;;;;;;5022061;28;20025;-71
2021/11/28 04:43:02;;;;;;;24.70;13.52;;;2.50;99.90;;;;;;5020211;28;20068;-71
2021/11/28 04:45:28;;;;;;;23.27;12.50;;;2.50;99.90;;;;;;5019856;28;20029;-71
2021/11/28 04:47:53;;;;;;;26.52;13.65;;;2.50;99.90;;;;;;5019230;28;20026;-71
2021/11/28 04:50:19;;;;;;;26.23;14.07;;;2.40;99.90;;;;;;5010786;28;20557;-71
2021/11/28 04:52:45;;;;;;;26.30;13.93;;;2.40;99.90;;;;;;5020657;28;20787;-71
2021/11/28 04:55:12;;;;;;;24.55;13.63;;;2.50;99.90;;;;;;5020287;28;20433;-71
2021/11/28 04:57:39;;;;;;;25.70;13.38;;;2.50;99.90;;;;;;5022746;28;20061;-71
2021/11/28 05:00:12;;;;;;;23.80;13.98;;;2.50;99.90;;;;;;5024630;28;20029;-71
2021/11/28 05:02:39;;;;;;;24.90;13.68;;;2.50;99.90;;;;;;5022150;28;20743;-71
2021/11/28 05:05:11;;;;;;;26.50;14.18;;;2.50;99.90;;;;;;5002117;28;20034;-71
2021/11/28 05:07:37;;;;;;;24.30;13.43;;;2.50;99.90;;;;;;5020091;28;20029;-71
2021/11/28 05:10:04;;;;;;;30.83;16.00;;;2.50;99.90;;;;;;5022400;28;20025;-71
2021/11/28 05:12:30;;;;;;;27.15;14.43;;;2.50;99.90;;;;;;5020336;28;20061;-70
2021/11/28 05:14:56;;;;;;;28.75;15.30;;;2.50;99.90;;;;;;5021312;28;20026;-70
2021/11/28 05:17:22;;;;;;;30.92;15.02;;;2.50;99.90;;;;;;5022410;28;20540;-70
2021/11/28 05:19:48;;;;;;;30.25;15.68;;;2.60;99.90;;;;;;5021736;28;20412;-70
2021/11/28 05:22:14;;;;;;;29.48;15.35;;;2.50;99.90;;;;;;5017670;28;20064;-70
2021/11/28 05:24:40;;;;;;;28.55;15.38;;;2.60;99.90;;;;;;5018134;28;20109;-69
2021/11/28 05:27:06;;;;;;;30.08;15.13;;;2.60;99.90;;;;;;5002909;28;20424;-70
2021/11/28 05:29:32;;;;;;;30.55;16.35;;;2.60;99.90;;;;;;5026702;28;20407;-71
2021/11/28 05:31:57;;;;;;;32.78;16.05;;;2.50;99.90;;;;;;5025185;28;20033;-70
2021/11/28 05:34:23;;;;;;;31.55;16.35;;;2.50;99.90;;;;;;5019534;28;20168;-72
2021/11/28 05:36:49;;;;;;;32.63;16.65;;;2.60;99.90;;;;;;5022068;28;20100;-72
2021/11/28 05:39:15;;;;;;;28.88;16.23;;;2.60;99.90;;;;;;5018548;28;20030;-71
2021/11/28 05:41:40;;;;;;;31.17;15.73;;;2.60;99.90;;;;;;5017819;28;20061;-71
2021/11/28 05:44:06;;;;;;;31.88;15.27;;;2.60;99.90;;;;;;5021979;28;20069;-72
2021/11/28 05:46:32;;;;;;;28.77;15.40;;;2.60;99.90;;;;;;5020141;28;20041;-69
2021/11/28 05:48:58;;;;;;;32.55;15.63;;;2.60;99.90;;;;;;5019274;28;20044;-70
2021/11/28 05:51:24;;;;;;;29.80;15.93;;;2.60;99.90;;;;;;5016777;28;20033;-70
2021/11/28 05:53:50;;;;;;;29.27;15.07;;;2.60;99.90;;;;;;5019548;28;20029;-72
2021/11/28 05:56:17;;;;;;;30.20;15.85;;;2.60;99.90;;;;;;5018528;28;20045;-70
2021/11/28 05:58:43;;;;;;;27.40;13.75;;;2.60;99.90;;;;;;5019162;28;20065;-70
2021/11/28 06:01:10;;;;;;;28.38;14.13;;;2.60;99.90;;;;;;5019548;28;20029;-70
2021/11/28 06:03:36;;;;;;;30.00;15.80;;;2.60;99.90;;;;;;5020130;28;20099;-70
2021/11/28 06:06:01;;;;;;;27.42;13.68;;;2.60;99.90;;;;;;5021136;28;20037;-70
2021/11/28 06:08:27;;;;;;;28.33;14.85;;;2.70;99.90;;;;;;5016997;28;20022;-72
2021/11/28 06:10:53;;;;;;;25.83;13.98;;;2.70;99.90;;;;;;5018594;28;20036;-71
2021/11/28 06:13:19;;;;;;;28.42;14.65;;;2.70;99.90;;;;;;5014634;28;20442;-71
2021/11/28 06:15:45;;;;;;;29.58;15.77;;;2.70;99.90;;;;;;5023090;28;20448;-72
2021/11/28 06:18:11;;;;;;;29.83;15.70;;;2.70;99.90;;;;;;5006992;28;20091;-72
2021/11/28 06:20:37;;;;;;;28.10;14.95;;;2.70;99.90;;;;;;5018958;28;20034;-71
2021/11/28 06:23:03;;;;;;;29.33;14.95;;;2.80;99.90;;;;;;5017803;28;20109;-71
2021/11/28 06:25:29;;;;;;;28.55;15.25;;;2.70;99.90;;;;;;5018441;28;20033;-71
2021/11/28 06:27:55;;;;;;;28.65;15.48;;;2.70;99.90;;;;;;5016769;28;20102;-71
2021/11/28 06:30:21;;;;;;;31.27;16.85;;;2.70;99.90;;;;;;5020468;28;21559;-71
2021/11/28 06:32:47;;;;;;;31.08;15.80;;;2.80;99.90;;;;;;5017785;28;20044;-72
2021/11/28 06:35:14;;;;;;;29.35;16.13;;;2.80;99.90;;;;;;5020252;28;20507;-71
2021/11/28 06:37:39;;;;;;;28.15;15.13;;;2.80;99.90;;;;;;5015660;28;20025;-71
2021/11/28 06:40:06;;;;;;;29.80;16.13;;;2.80;99.90;;;;;;5018807;28;20025;-71
2021/11/28 06:42:32;;;;;;;30.48;16.25;;;2.80;99.90;;;;;;5021072;28;20038;-71
2021/11/28 06:44:58;;;;;;;26.88;15.38;;;2.80;99.90;;;;;;5018261;28;20040;-71
2021/11/28 06:47:24;;;;;;;27.80;15.60;;;2.80;99.90;;;;;;5015488;28;20026;-71
2021/11/28 06:49:50;;;;;;;28.52;15.50;;;2.80;99.90;;;;;;5021081;28;20097;-71
2021/11/28 06:52:16;;;;;;;28.10;15.77;;;2.80;99.90;;;;;;5019015;28;20076;-71
2021/11/28 06:54:41;;;;;;;29.95;16.00;;;2.90;99.90;;;;;;4998714;28;20025;-71
2021/11/28 06:57:07;;;;;;;28.73;16.20;;;2.80;99.90;;;;;;5020948;28;20077;-71
2021/11/28 06:59:34;;;;;;;30.30;15.73;;;2.80;99.90;;;;;;5018342;28;20037;-71
2021/11/28 07:01:59;;;;;;;28.98;16.38;;;2.80;99.90;;;;;;5023750;28;20621;-71
2021/11/28 07:04:25;;;;;;;31.88;16.85;;;2.80;99.90;;;;;;5020842;28;20033;-70
2021/11/28 07:06:51;;;;;;;28.42;15.15;;;2.80;99.90;;;;;;5019750;28;20022;-71
2021/11/28 07:09:17;;;;;;;25.02;14.57;;;2.90;99.90;;;;;;5022571;28;20026;-71
2021/11/28 07:11:43;;;;;;;28.73;15.15;;;2.90;99.90;;;;;;5014585;28;20095;-71
2021/11/28 07:14:08;;;;;;;27.75;14.85;;;3.00;99.90;;;;;;5015144;28;20033;-71
2021/11/28 07:16:34;;;;;;;27.10;14.68;;;3.00;99.90;;;;;;5013852;28;20034;-71
2021/11/28 07:19:00;;;;;;;29.05;15.73;;;3.00;99.90;;;;;;5014785;28;20495;-72
2021/11/28 07:21:26;;;;;;;30.20;16.05;;;3.00;99.90;;;;;;5019543;28;20037;-71
2021/11/28 07:23:51;;;;;;;29.05;15.70;;;3.00;99.90;;;;;;5021209;28;20021;-72
2021/11/28 07:26:18;;;;;;;27.83;15.68;;;3.10;99.90;;;;;;5023045;28;20036;-71
2021/11/28 07:28:47;;;;;;;30.02;16.98;;;3.10;99.90;;;;;;5017381;28;20029;-71
2021/11/28 07:31:13;;;;;;;30.25;16.45;;;3.00;99.90;;;;;;5020653;28;20040;-72
2021/11/28 07:33:39;;;;;;;28.45;16.00;;;3.10;99.90;;;;;;5019122;28;20034;-71
2021/11/28 07:36:06;;;;;;;32.03;17.27;;;3.10;99.90;;;;;;5023639;28;20030;-70
2021/11/28 07:38:32;;;;;;;33.10;17.52;;;3.10;99.90;;;;;;5025604;28;20041;-71
2021/11/28 07:40:59;;;;;;;38.05;17.95;;;3.10;99.90;;;;;;5021110;28;20069;-71
2021/11/28 07:43:25;;;;;;;38.83;19.50;;;3.10;99.90;;;;;;5016971;28;20049;-72
2021/11/28 07:45:50;;;;;;;34.03;17.83;;;3.10;99.90;;;;;;5021493;28;20116;-70
2021/11/28 07:48:16;;;;;;;34.50;17.90;;;3.10;99.90;;;;;;5017578;28;20053;-71
2021/11/28 07:50:45;;;;;;;36.83;18.63;;;3.10;99.90;;;;;;5021402;28;20036;-71
2021/11/28 07:53:11;;;;;;;34.60;17.70;;;3.10;99.90;;;;;;5015553;28;20080;-71
2021/11/28 07:55:37;;;;;;;35.28;18.77;;;3.20;99.90;;;;;;5022814;28;20045;-71
2021/11/28 07:58:03;;;;;;;36.67;18.77;;;3.20;99.90;;;;;;5020504;28;20033;-71
2021/11/28 08:00:29;;;;;;;33.53;17.70;;;3.20;99.90;;;;;;5015697;28;20691;-71
2021/11/28 08:02:55;;;;;;;36.67;18.83;;;3.20;99.90;;;;;;5020511;28;20473;-71
2021/11/28 08:05:22;;;;;;;33.38;18.05;;;3.20;99.90;;;;;;5023254;28;20021;-71
2021/11/28 08:07:47;;;;;;;35.40;19.00;;;3.30;99.90;;;;;;5020944;28;20050;-70
2021/11/28 08:10:14;;;;;;;32.28;17.20;;;3.30;99.90;;;;;;5020032;28;20405;-71
2021/11/28 08:12:39;;;;;;;36.33;18.60;;;3.30;99.90;;;;;;5019029;28;20153;-71
2021/11/28 08:15:08;;;;;;;34.42;17.55;;;3.30;99.90;;;;;;5021000;28;20109;-72
2021/11/28 08:17:48;;;;;;;33.60;18.20;;;3.30;99.90;;;;;;5021546;28;20041;-72
2021/11/28 08:20:16;;;;;;;34.65;18.05;;;3.30;99.90;;;;;;5020485;28;20380;-72
2021/11/28 08:22:43;;;;;;;31.70;17.13;;;3.40;99.90;;;;;;5019431;28;20105;-72
2021/11/28 08:25:12;;;;;;;32.97;17.10;;;3.40;99.90;;;;;;5021145;28;20038;-72
2021/11/28 08:27:38;;;;;;;31.52;17.13;;;3.40;99.90;;;;;;5020173;28;20050;-72
2021/11/28 08:30:11;;;;;;;29.63;15.50;;;3.50;99.90;;;;;;5019980;28;20121;-72
2021/11/28 08:32:39;;;;;;;28.80;15.77;;;3.50;99.90;;;;;;5017602;28;20042;-72
2021/11/28 08:35:07;;;;;;;28.17;15.00;;;3.60;99.90;;;;;;5021265;28;20083;-72
2021/11/28 08:37:33;;;;;;;26.90;15.55;;;3.60;99.90;;;;;;5023924;28;20053;-72
2021/11/28 08:39:59;;;;;;;26.45;15.45;;;3.60;99.90;;;;;;5022237;28;20498;-72
2021/11/28 08:42:26;;;;;;;31.80;16.85;;;3.70;99.90;;;;;;5017440;28;20026;-72
2021/11/28 08:44:52;;;;;;;31.00;16.80;;;3.60;99.90;;;;;;5016596;28;20028;-71
2021/11/28 08:47:17;;;;;;;28.75;16.10;;;3.60;99.90;;;;;;5021159;28;20109;-72
2021/11/28 08:49:45;;;;;;;30.95;16.95;;;3.60;99.90;;;;;;5017798;28;20048;-72
2021/11/28 08:52:13;;;;;;;31.55;16.15;;;3.60;99.90;;;;;;5016967;28;20029;-72
2021/11/28 08:54:38;;;;;;;28.73;15.75;;;3.60;99.90;;;;;;4998969;28;20068;-72
2021/11/28 08:57:04;;;;;;;31.13;16.67;;;3.60;99.90;;;;;;5014471;28;20449;-72
2021/11/28 08:59:30;;;;;;;31.13;17.30;;;3.60;99.90;;;;;;5017337;28;20030;-72
2021/11/28 09:01:58;;;;;;;29.52;15.63;;;3.60;99.90;;;;;;5018415;28;20037;-72
2021/11/28 09:04:24;;;;;;;28.60;15.85;;;3.60;99.90;;;;;;5014844;28;20037;-71
2021/11/28 09:06:50;;;;;;;29.73;16.13;;;3.70;99.90;;;;;;5022111;28;20022;-72
2021/11/28 09:09:16;;;;;;;30.20;15.68;;;3.70;99.90;;;;;;5021454;28;20026;-72
2021/11/28 09:11:42;;;;;;;27.10;15.68;;;3.70;99.90;;;;;;5015843;28;20048;-73
2021/11/28 09:14:08;;;;;;;27.65;15.05;;;3.60;99.90;;;;;;5018647;28;20029;-75
2021/11/28 09:16:34;;;;;;;37.22;17.88;;;3.70;99.90;;;;;;5015932;28;20041;-73
2021/11/28 09:19:05;;;;;;;31.38;16.00;;;3.60;99.90;;;;;;5019655;28;20018;-74
2021/11/28 09:21:31;;;;;;;27.85;15.48;;;3.60;99.90;;;;;;5018562;28;20479;-74
2021/11/28 09:26:43;;;;;;;31.30;16.80;;;3.70;99.90;;;;;;5023290;28;20044;-74
2021/11/28 09:29:09;;;;;;;28.13;15.85;;;3.70;99.90;;;;;;5015134;28;20064;-74
2021/11/28 09:31:34;;;;;;;30.38;16.33;;;3.80;99.90;;;;;;5024665;28;20058;-74
2021/11/28 09:34:04;;;;;;;28.95;15.48;;;3.80;99.90;;;;;;5016224;28;20030;-74
2021/11/28 09:36:32;;;;;;;27.95;16.35;;;3.80;99.90;;;;;;5021247;28;20018;-74
2021/11/28 09:39:05;;;;;;;29.50;16.05;;;3.80;99.90;;;;;;5023028;28;20101;-72
2021/11/28 09:41:36;;;;;;;33.10;17.80;;;3.80;99.90;;;;;;4980872;28;20032;-74
2021/11/28 09:44:10;;;;;;;29.52;16.27;;;3.90;99.90;;;;;;5002681;28;20025;-74
2021/11/28 09:46:37;;;;;;;30.60;16.27;;;3.80;99.90;;;;;;5021596;28;20499;-73
2021/11/28 09:49:06;;;;;;;31.23;16.70;;;3.80;99.90;;;;;;5015780;28;20026;-72
2021/11/28 09:51:32;;;;;;;30.35;16.15;;;3.90;99.90;;;;;;5021179;28;20498;-72
2021/11/28 09:54:03;;;;;;;26.08;15.38;;;3.90;99.90;;;;;;5022577;28;20029;-72
2021/11/28 09:56:35;;;;;;;27.98;15.38;;;3.80;99.90;;;;;;5021626;28;20113;-72
2021/11/28 09:59:03;;;;;;;30.88;15.43;;;3.80;99.90;;;;;;5023843;28;20029;-72
2021/11/28 10:01:31;;;;;;;24.45;14.32;;;3.80;99.90;;;;;;5015518;28;21252;-72
2021/11/28 10:03:57;;;;;;;29.83;16.20;;;3.70;99.90;;;;;;5013366;28;20061;-72
2021/11/28 10:06:23;;;;;;;28.45;15.63;;;3.80;99.90;;;;;;5016919;28;20096;-74
2021/11/28 10:08:49;;;;;;;27.23;14.68;;;3.90;99.90;;;;;;5018448;28;20033;-72
2021/11/28 10:11:17;;;;;;;30.52;17.70;;;3.90;99.90;;;;;;5015496;28;20037;-73
2021/11/28 10:13:46;;;;;;;32.83;15.85;;;4.00;99.90;;;;;;5018589;28;20080;-72
2021/11/28 10:16:12;;;;;;;24.98;14.25;;;4.00;99.90;;;;;;5011816;28;20040;-72
2021/11/28 10:18:37;;;;;;;29.30;15.48;;;4.00;99.90;;;;;;5014088;28;20110;-72
2021/11/28 10:21:04;;;;;;;31.52;17.02;;;4.00;99.90;;;;;;5017031;28;20176;-72
2021/11/28 10:23:30;;;;;;;25.05;14.63;;;4.00;99.90;;;;;;5014878;28;20120;-72
2021/11/28 10:26:15;;;;;;;29.65;15.80;;;3.90;99.90;;;;;;5018048;28;20181;-72
2021/11/28 10:29:08;;;;;;;25.55;14.50;;;4.00;99.90;;;;;;5023990;28;20104;-72
2021/11/28 10:31:54;;;;;;;28.23;15.50;;;4.10;99.90;;;;;;5017518;28;20056;-71
2021/11/28 10:34:25;;;;;;;27.15;14.63;;;4.10;99.90;;;;;;5018201;28;20030;-70
2021/11/28 10:37:01;;;;;;;28.27;15.65;;;4.20;99.90;;;;;;5014360;28;20464;-70
2021/11/28 10:39:27;;;;;;;29.55;16.52;;;4.20;99.90;;;;;;5017943;28;20395;-70
2021/11/28 10:41:56;;;;;;;29.05;15.57;;;4.10;99.90;;;;;;5017232;28;20034;-70
2021/11/28 10:44:25;;;;;;;28.50;15.73;;;4.10;99.90;;;;;;5018592;28;20080;-70
2021/11/28 10:46:56;;;;;;;28.77;15.25;;;4.10;99.90;;;;;;4995580;28;20032;-72
2021/11/28 10:49:24;;;;;;;29.75;16.38;;;4.10;99.90;;;;;;5008854;28;20032;-70
2021/11/28 10:52:05;;;;;;;27.13;15.50;;;4.10;99.90;;;;;;5005944;28;20022;-70
2021/11/28 10:54:37;;;;;;;30.90;16.47;;;4.10;99.90;;;;;;4979379;28;20030;-70
2021/11/28 10:57:25;;;;;;;29.13;15.65;;;4.10;99.90;;;;;;5014453;28;20288;-71
2021/11/28 10:59:59;;;;;;;30.35;16.42;;;4.10;99.90;;;;;;5017720;28;20488;-71
2021/11/28 11:02:33;;;;;;;25.92;14.77;;;4.10;99.90;;;;;;5017524;28;20124;-70
2021/11/28 11:05:01;;;;;;;26.73;15.63;;;4.20;99.90;;;;;;5017539;28;20030;-70
2021/11/28 11:07:39;;;;;;;27.67;16.30;;;4.40;99.90;;;;;;5017331;28;20163;-70
2021/11/28 11:10:33;;;;;;;27.77;16.30;;;4.40;99.90;;;;;;5014482;28;20112;-71
2021/11/28 11:12:59;;;;;;;26.63;15.80;;;4.50;99.90;;;;;;5015370;28;20037;-71
2021/11/28 11:15:39;;;;;;;26.40;15.15;;;4.50;99.90;;;;;;5017366;28;20033;-70
2021/11/28 11:18:09;;;;;;;25.75;14.38;;;4.40;99.90;;;;;;5013357;28;20530;-71
2021/11/28 11:20:40;;;;;;;24.52;14.63;;;4.50;99.90;;;;;;5019005;28;20582;-71
2021/11/28 11:23:34;;;;;;;22.70;13.48;;;4.50;99.90;;;;;;5022371;28;20116;-71
2021/11/28 11:26:22;;;;;;;19.85;12.10;;;4.50;99.90;;;;;;5019956;28;20479;-70
2021/11/28 11:29:17;;;;;;;23.65;13.95;;;4.60;99.90;;;;;;5019078;28;20699;-72
2021/11/28 11:31:53;;;;;;;22.35;13.07;;;4.70;99.90;;;;;;5021641;28;20087;-72
2021/11/28 11:34:22;;;;;;;21.83;12.60;;;4.70;99.90;;;;;;5016029;28;20041;-71
2021/11/28 11:36:56;;;;;;;19.35;11.73;;;4.70;99.90;;;;;;5014043;28;20021;-72
2021/11/28 11:39:24;;;;;;;19.98;12.35;;;4.80;99.90;;;;;;5021332;28;20049;-73
2021/11/28 11:41:50;;;;;;;19.95;12.23;;;4.80;99.90;;;;;;5023365;28;20488;-72
2021/11/28 11:44:17;;;;;;;20.75;13.02;;;4.90;99.90;;;;;;5018712;28;20115;-72
2021/11/28 11:46:46;;;;;;;21.08;13.32;;;5.00;99.90;;;;;;5020468;28;21002;-71
2021/11/28 11:49:15;;;;;;;18.73;11.50;;;5.10;99.90;;;;;;5030714;28;20026;-74
2021/11/28 11:51:42;;;;;;;16.00;10.13;;;5.20;99.90;;;;;;5022747;28;20037;-72
2021/11/28 11:54:23;;;;;;;14.55;9.27;;;5.20;99.90;;;;;;5025042;28;20029;-72
2021/11/28 11:57:15;;;;;;;14.15;9.30;;;5.30;99.90;;;;;;5023364;28;20056;-70
2021/11/28 12:00:08;;;;;;;16.20;10.38;;;5.30;99.90;;;;;;5025688;28;20117;-72
2021/11/28 12:02:37;;;;;;;14.55;9.38;;;5.20;99.90;;;;;;5029887;28;20029;-72
2021/11/28 12:05:25;;;;;;;15.70;10.45;;;5.20;99.90;;;;;;5026602;28;20079;-73
2021/11/28 12:07:57;;;;;;;15.32;9.35;;;5.10;99.90;;;;;;5016613;28;20115;-72
2021/11/28 12:10:30;;;;;;;;;;;5.10;99.90;;;;;;5020076;28;20025;-72
2021/11/28 12:12:57;;;;;;;14.13;8.73;;;4.90;99.90;;;;;;5029857;28;20294;-72
2021/11/28 12:15:29;;;;;;;18.35;9.45;;;5.00;99.90;;;;;;5025951;28;20033;-73
2021/11/28 12:17:57;;;;;;;13.68;9.02;;;4.90;99.90;;;;;;5022892;28;20041;-72
2021/11/28 12:20:44;;;;;;;13.95;9.30;;;4.80;99.90;;;;;;5023122;28;20499;-72
2021/11/28 12:23:11;;;;;;;13.75;8.45;;;4.70;99.90;;;;;;5024793;28;20086;-72
2021/11/28 12:25:48;;;;;;;13.18;9.00;;;4.70;99.90;;;;;;5021914;28;20041;-73
2021/11/28 12:28:34;;;;;;;14.73;9.90;;;4.70;99.90;;;;;;5022067;28;20026;-72
2021/11/28 12:31:06;;;;;;;16.00;10.45;;;4.60;99.90;;;;;;5024678;28;20052;-72
2021/11/28 12:33:51;;;;;;;17.75;10.80;;;4.60;99.90;;;;;;5019469;28;20037;-72
2021/11/28 12:36:39;;;;;;;26.23;14.32;;;4.60;99.90;;;;;;5019297;28;20029;-73
2021/11/28 12:39:35;;;;;;;17.58;11.25;;;4.90;99.90;;;;;;5020926;28;20030;-73
2021/11/28 12:42:02;;;;;;;19.60;11.60;;;4.90;99.90;;;;;;5024410;28;20026;-73
2021/11/28 12:44:29;;;;;;;16.77;10.43;;;4.90;99.90;;;;;;5001010;28;20486;-74
2021/11/28 12:46:57;;;;;;;18.73;11.95;;;4.90;99.90;;;;;;5006249;28;20483;-72
2021/11/28 12:49:24;;;;;;;16.13;10.43;;;4.90;99.90;;;;;;5021465;28;20569;-71
2021/11/28 12:51:50;;;;;;;16.90;10.80;;;4.80;99.90;;;;;;5022788;28;20090;-70
2021/11/28 12:54:36;;;;;;;16.45;11.02;;;4.70;99.90;;;;;;5019694;28;20072;-72
2021/11/28 12:57:20;;;;;;;18.10;10.68;;;4.70;99.90;;;;;;5019867;28;20029;-72